Time;durP1;ratioP1;P1;durP2;ratioP2;P2;SDS_P1;SDS_P2;PMS_P1;PMS_P2;Temp;Humidity;BMP_temperature;BMP_pressure;BME280_temperature;BME280_humidity;BME280_pressure;Samples;Min_cycle;Max_cycle;Signal;HPM_P1;HPM_P2
2023/03/19 00:01:03;;;;;;;13.67;7.70;;;;;;;;;;5031967;28;20082;-74
2023/03/19 00:03:29;;;;;;;14.20;7.68;;;;;;;;;;5033172;28;20333;-72
2023/03/19 00:05:55;;;;;;;16.48;7.63;;;;;;;;;;5033216;28;20025;-72
2023/03/19 00:08:21;;;;;;;15.73;7.47;;;;;;;;;;5037120;28;20031;-73
2023/03/19 00:10:46;;;;;;;15.32;7.47;;;;;;;;;;5036721;28;20255;-72
2023/03/19 00:13:11;;;;;;;14.88;7.97;;;;;;;;;;5036339;28;20028;-73
2023/03/19 00:15:37;;;;;;;13.80;7.43;;;;;;;;;;5036962;28;20033;-72
2023/03/19 00:18:04;;;;;;;20.50;7.47;;;;;;;;;;5036344;28;20025;-73
2023/03/19 00:20:29;;;;;;;15.93;7.93;;;;;;;;;;5036204;28;20741;-72
2023/03/19 00:22:54;;;;;;;14.85;7.72;;;;;;;;;;5035252;28;20028;-72
2023/03/19 00:25:20;;;;;;;19.35;7.65;;;;;;;;;;5036246;28;20018;-72
2023/03/19 00:27:45;;;;;;;11.18;6.78;;;;;;;;;;5036016;28;20029;-71
2023/03/19 00:30:11;;;;;;;12.82;7.40;;;;;;;;;;5034860;28;20030;-72
2023/03/19 00:32:36;;;;;;;14.63;7.15;;;;;;;;;;5035936;28;20024;-72
2023/03/19 00:35:02;;;;;;;11.97;7.10;;;;;;;;;;5036304;28;20056;-73
2023/03/19 00:37:27;;;;;;;14.77;7.72;;;;;;;;;;5036163;28;20274;-72
2023/03/19 00:39:53;;;;;;;13.93;7.47;;;;;;;;;;5035813;28;20481;-72
2023/03/19 00:42:18;;;;;;;13.82;7.57;;;;;;;;;;5034620;28;20026;-72
2023/03/19 00:44:43;;;;;;;15.00;6.85;;;;;;;;;;5034680;28;20025;-71
2023/03/19 00:47:08;;;;;;;18.00;8.20;;;;;;;;;;5035341;28;20495;-72
2023/03/19 00:49:34;;;;;;;18.67;7.53;;;;;;;;;;5035331;28;20749;-72
2023/03/19 00:51:59;;;;;;;13.40;7.78;;;;;;;;;;5034521;28;20028;-72
2023/03/19 00:54:24;;;;;;;13.13;7.03;;;;;;;;;;5033461;28;20116;-72
2023/03/19 00:56:49;;;;;;;12.30;7.37;;;;;;;;;;5035405;28;20356;-72
2023/03/19 00:59:14;;;;;;;14.20;7.83;;;;;;;;;;5035757;28;20255;-73
2023/03/19 01:01:40;;;;;;;12.97;7.03;;;;;;;;;;5035555;28;20259;-73
2023/03/19 01:04:05;;;;;;;13.02;7.00;;;;;;;;;;5035495;28;20259;-72
2023/03/19 01:06:31;;;;;;;14.82;7.28;;;;;;;;;;5035372;28;20022;-73
2023/03/19 01:08:56;;;;;;;12.70;7.68;;;;;;;;;;5035412;28;20017;-73
2023/03/19 01:11:21;;;;;;;17.73;7.72;;;;;;;;;;5035311;28;20026;-72
2023/03/19 01:13:46;;;;;;;16.25;7.28;;;;;;;;;;5035450;28;20056;-72
2023/03/19 01:16:12;;;;;;;15.45;8.18;;;;;;;;;;5035235;28;20031;-72
2023/03/19 01:18:37;;;;;;;15.13;7.55;;;;;;;;;;5034459;28;20091;-73
2023/03/19 01:21:03;;;;;;;19.50;7.72;;;;;;;;;;5035449;28;20079;-72
2023/03/19 01:23:29;;;;;;;17.40;7.75;;;;;;;;;;5035371;28;20083;-73
2023/03/19 01:25:55;;;;;;;16.58;7.88;;;;;;;;;;5034947;28;20116;-73
2023/03/19 01:28:21;;;;;;;15.35;8.13;;;;;;;;;;5035086;28;20480;-73
2023/03/19 01:30:46;;;;;;;12.85;7.05;;;;;;;;;;5035045;28;20036;-72
2023/03/19 01:33:11;;;;;;;15.10;7.80;;;;;;;;;;5034915;28;20223;-73
2023/03/19 01:35:38;;;;;;;14.52;7.65;;;;;;;;;;5034904;28;20132;-72
2023/03/19 01:38:03;;;;;;;15.20;7.85;;;;;;;;;;5035030;28;20408;-72
2023/03/19 01:40:30;;;;;;;16.65;7.72;;;;;;;;;;5035113;28;20029;-71
2023/03/19 01:43:16;;;;;;;16.52;8.02;;;;;;;;;;5034790;28;20018;-71
2023/03/19 01:45:42;;;;;;;14.57;7.53;;;;;;;;;;5034720;28;20401;-73
2023/03/19 01:48:19;;;;;;;13.18;7.68;;;;;;;;;;5033333;28;20049;-72
2023/03/19 01:50:46;;;;;;;14.63;7.55;;;;;;;;;;5034901;28;20071;-73
2023/03/19 01:53:13;;;;;;;16.25;8.38;;;;;;;;;;5034784;28;20476;-72
2023/03/19 01:55:40;;;;;;;12.35;7.32;;;;;;;;;;5034741;28;20096;-71
2023/03/19 01:58:06;;;;;;;17.42;7.30;;;;;;;;;;5034744;28;20104;-72
2023/03/19 02:00:33;;;;;;;17.05;8.25;;;;;;;;;;5033166;28;20026;-72
2023/03/19 02:03:01;;;;;;;14.82;7.80;;;;;;;;;;5034411;28;20022;-72
2023/03/19 02:05:27;;;;;;;13.32;7.40;;;;;;;;;;5034364;28;20477;-72
2023/03/19 02:07:56;;;;;;;23.70;7.75;;;;;;;;;;5034233;28;20079;-72
2023/03/19 02:10:22;;;;;;;15.90;7.63;;;;;;;;;;5034421;28;20025;-72
2023/03/19 02:12:48;;;;;;;14.20;7.93;;;;;;;;;;5034077;28;20036;-73
2023/03/19 02:15:13;;;;;;;14.80;7.50;;;;;;;;;;5034439;28;20041;-72
2023/03/19 02:17:40;;;;;;;17.67;7.80;;;;;;;;;;5034004;28;20018;-72
2023/03/19 02:20:27;;;;;;;16.15;8.40;;;;;;;;;;5034028;28;20404;-73
2023/03/19 02:23:10;;;;;;;16.98;8.10;;;;;;;;;;5034317;28;20060;-72
2023/03/19 02:25:50;;;;;;;19.15;7.82;;;;;;;;;;5032750;28;20021;-72
2023/03/19 02:28:18;;;;;;;16.17;7.70;;;;;;;;;;5033912;28;20021;-73
2023/03/19 02:30:43;;;;;;;16.90;8.65;;;;;;;;;;5032921;28;20021;-73
2023/03/19 02:33:14;;;;;;;15.65;7.85;;;;;;;;;;5034215;28;20033;-73
2023/03/19 02:35:41;;;;;;;14.93;7.80;;;;;;;;;;5030764;28;20155;-73
2023/03/19 02:38:06;;;;;;;15.40;7.80;;;;;;;;;;5032714;28;20030;-73
2023/03/19 02:40:37;;;;;;;15.32;8.15;;;;;;;;;;5033501;28;20025;-73
2023/03/19 02:43:02;;;;;;;13.73;7.65;;;;;;;;;;5033765;28;20021;-72
2023/03/19 02:45:28;;;;;;;15.57;7.80;;;;;;;;;;5032051;28;20029;-72
2023/03/19 02:47:54;;;;;;;14.15;8.25;;;;;;;;;;5032674;28;20035;-72
2023/03/19 02:50:20;;;;;;;14.63;6.90;;;;;;;;;;5033745;28;20112;-72
2023/03/19 02:52:45;;;;;;;15.65;8.15;;;;;;;;;;5033595;28;20017;-72
2023/03/19 02:55:10;;;;;;;16.37;7.47;;;;;;;;;;5033410;28;20024;-72
2023/03/19 02:57:36;;;;;;;17.38;8.02;;;;;;;;;;5033295;28;20275;-72
2023/03/19 03:00:03;;;;;;;15.93;8.05;;;;;;;;;;5033587;28;20021;-71
2023/03/19 03:02:29;;;;;;;17.02;8.05;;;;;;;;;;5033518;28;20048;-71
2023/03/19 03:04:55;;;;;;;16.48;7.82;;;;;;;;;;5033542;28;20469;-72
2023/03/19 03:07:21;;;;;;;19.83;8.13;;;;;;;;;;5033070;28;20030;-72
2023/03/19 03:09:46;;;;;;;13.43;7.32;;;;;;;;;;5033194;28;20049;-72
2023/03/19 03:12:11;;;;;;;15.02;8.40;;;;;;;;;;5033183;28;20026;-72
2023/03/19 03:14:37;;;;;;;14.70;7.73;;;;;;;;;;5033030;28;20029;-72
2023/03/19 03:17:02;;;;;;;13.85;7.20;;;;;;;;;;5033057;28;20254;-72
2023/03/19 03:19:27;;;;;;;16.00;8.02;;;;;;;;;;5032949;28;20155;-72
2023/03/19 03:21:52;;;;;;;15.55;7.63;;;;;;;;;;5032947;28;20030;-72
2023/03/19 03:24:18;;;;;;;15.60;8.02;;;;;;;;;;5031784;28;20038;-72
2023/03/19 03:26:43;;;;;;;14.20;7.05;;;;;;;;;;5031639;28;20053;-72
2023/03/19 03:29:09;;;;;;;17.30;7.97;;;;;;;;;;5033006;28;20111;-72
2023/03/19 03:31:34;;;;;;;16.42;7.88;;;;;;;;;;5032927;28;20391;-71
2023/03/19 03:34:00;;;;;;;16.70;7.35;;;;;;;;;;5032827;28;20030;-72
2023/03/19 03:36:26;;;;;;;16.42;7.95;;;;;;;;;;5032761;28;20063;-71
2023/03/19 03:38:52;;;;;;;15.93;7.13;;;;;;;;;;5033176;28;20083;-72
2023/03/19 03:41:17;;;;;;;14.50;7.65;;;;;;;;;;5034138;28;20022;-71
2023/03/19 03:43:43;;;;;;;13.57;7.32;;;;;;;;;;5036952;28;20025;-72
2023/03/19 03:46:08;;;;;;;14.13;7.63;;;;;;;;;;5037119;28;20487;-71
2023/03/19 03:48:34;;;;;;;15.00;7.60;;;;;;;;;;5037393;28;20033;-72
2023/03/19 03:50:59;;;;;;;12.48;6.80;;;;;;;;;;5036827;28;20273;-73
2023/03/19 03:53:24;;;;;;;15.50;7.88;;;;;;;;;;5036781;28;20033;-73
2023/03/19 03:55:50;;;;;;;17.67;8.00;;;;;;;;;;5037086;28;20032;-74
2023/03/19 03:58:15;;;;;;;13.43;7.80;;;;;;;;;;5037312;28;20026;-73
2023/03/19 04:00:41;;;;;;;14.32;7.18;;;;;;;;;;5036681;28;20261;-73
2023/03/19 04:03:06;;;;;;;15.18;7.85;;;;;;;;;;5036690;28;20100;-73
2023/03/19 04:05:31;;;;;;;13.68;7.20;;;;;;;;;;5036589;28;20393;-73
2023/03/19 04:07:57;;;;;;;15.40;7.90;;;;;;;;;;5036476;28;20021;-73
2023/03/19 04:10:23;;;;;;;13.43;7.60;;;;;;;;;;5036485;28;20018;-73
2023/03/19 04:12:48;;;;;;;17.33;7.28;;;;;;;;;;5036360;28;20026;-73
2023/03/19 04:15:14;;;;;;;16.95;7.55;;;;;;;;;;5036403;28;20027;-73
2023/03/19 04:17:39;;;;;;;15.50;7.25;;;;;;;;;;5036269;28;20029;-73
2023/03/19 04:20:06;;;;;;;15.40;7.70;;;;;;;;;;5036722;28;20025;-73
2023/03/19 04:22:32;;;;;;;15.90;7.90;;;;;;;;;;5036285;28;20761;-73
2023/03/19 04:24:57;;;;;;;14.15;7.68;;;;;;;;;;5036468;28;20029;-73
2023/03/19 04:27:22;;;;;;;19.67;8.00;;;;;;;;;;5036096;28;20052;-72
2023/03/19 04:29:47;;;;;;;13.27;7.37;;;;;;;;;;5034813;28;20025;-73
2023/03/19 04:32:13;;;;;;;14.53;7.93;;;;;;;;;;5036644;28;20354;-72
2023/03/19 04:34:38;;;;;;;13.20;6.87;;;;;;;;;;5035965;28;20361;-72
2023/03/19 04:37:03;;;;;;;14.68;7.22;;;;;;;;;;5035911;28;20305;-73
2023/03/19 04:39:28;;;;;;;15.13;7.68;;;;;;;;;;5035970;28;20021;-73
2023/03/19 04:41:54;;;;;;;16.60;7.65;;;;;;;;;;5034635;28;20029;-72
2023/03/19 04:44:20;;;;;;;13.18;7.57;;;;;;;;;;5036110;28;20056;-72
2023/03/19 04:46:46;;;;;;;16.75;7.18;;;;;;;;;;5034528;28;20021;-71
2023/03/19 04:49:11;;;;;;;19.20;7.93;;;;;;;;;;5034471;28;20082;-72
2023/03/19 04:51:37;;;;;;;13.52;7.38;;;;;;;;;;5035722;28;20032;-71
2023/03/19 04:54:02;;;;;;;14.20;7.40;;;;;;;;;;5034467;28;20100;-72
2023/03/19 04:56:28;;;;;;;17.27;7.68;;;;;;;;;;5035641;28;20033;-72
2023/03/19 04:58:53;;;;;;;13.73;7.78;;;;;;;;;;5036173;28;20040;-73
2023/03/19 05:01:19;;;;;;;15.35;7.60;;;;;;;;;;5035613;28;20022;-71
2023/03/19 05:03:44;;;;;;;16.38;7.50;;;;;;;;;;5035609;28;20018;-72
2023/03/19 05:06:10;;;;;;;13.40;7.88;;;;;;;;;;5035381;28;20025;-72
2023/03/19 05:08:36;;;;;;;16.00;8.10;;;;;;;;;;5035360;28;20021;-71
2023/03/19 05:11:01;;;;;;;13.65;7.57;;;;;;;;;;5035379;28;20477;-72
2023/03/19 05:13:26;;;;;;;14.95;7.03;;;;;;;;;;5035247;28;20025;-72
2023/03/19 05:15:54;;;;;;;12.98;7.25;;;;;;;;;;5035231;28;20057;-71
2023/03/19 05:18:19;;;;;;;14.27;7.50;;;;;;;;;;5035212;28;20025;-72
2023/03/19 05:20:45;;;;;;;14.45;7.20;;;;;;;;;;5035228;28;20036;-72
2023/03/19 05:23:10;;;;;;;14.77;7.25;;;;;;;;;;5035289;28;20017;-72
2023/03/19 05:25:35;;;;;;;14.90;7.13;;;;;;;;;;5035332;28;20033;-72
2023/03/19 05:28:01;;;;;;;17.38;8.18;;;;;;;;;;5035186;28;20258;-73
2023/03/19 05:30:27;;;;;;;15.60;7.47;;;;;;;;;;5035070;28;20378;-72
2023/03/19 05:32:54;;;;;;;14.82;7.50;;;;;;;;;;5035168;28;20033;-72
2023/03/19 05:35:19;;;;;;;15.02;7.57;;;;;;;;;;5034927;28;20052;-72
2023/03/19 05:37:45;;;;;;;14.43;7.57;;;;;;;;;;5035414;28;20476;-72
2023/03/19 05:40:11;;;;;;;13.60;7.40;;;;;;;;;;5035213;28;20740;-72
2023/03/19 05:42:36;;;;;;;16.40;7.50;;;;;;;;;;5034797;28;20407;-72
2023/03/19 05:45:03;;;;;;;15.18;8.07;;;;;;;;;;5033438;28;20021;-73
2023/03/19 05:47:28;;;;;;;16.52;7.68;;;;;;;;;;5034776;28;20029;-72
2023/03/19 05:49:54;;;;;;;17.60;8.20;;;;;;;;;;5034746;28;20468;-72
2023/03/19 05:52:19;;;;;;;17.83;8.50;;;;;;;;;;5034620;28;20029;-72
2023/03/19 05:54:48;;;;;;;19.50;7.72;;;;;;;;;;5034703;28;20079;-72
2023/03/19 05:57:13;;;;;;;18.95;8.48;;;;;;;;;;5034462;28;20163;-72
2023/03/19 05:59:38;;;;;;;16.67;7.68;;;;;;;;;;5034498;28;20488;-73
2023/03/19 06:02:03;;;;;;;14.87;7.00;;;;;;;;;;5034446;28;20037;-72
2023/03/19 06:04:29;;;;;;;18.25;7.05;;;;;;;;;;5034175;28;20247;-72
2023/03/19 06:06:54;;;;;;;16.52;7.85;;;;;;;;;;5034385;28;20032;-72
2023/03/19 06:09:19;;;;;;;19.38;7.57;;;;;;;;;;5034310;28;20397;-72
2023/03/19 06:11:45;;;;;;;14.37;7.57;;;;;;;;;;5032902;28;20068;-72
2023/03/19 06:14:10;;;;;;;16.08;7.63;;;;;;;;;;5034132;28;20302;-72
2023/03/19 06:16:36;;;;;;;11.57;6.95;;;;;;;;;;5033981;28;20484;-72
2023/03/19 06:19:01;;;;;;;18.52;7.68;;;;;;;;;;5034159;28;20032;-72
2023/03/19 06:21:28;;;;;;;14.73;7.65;;;;;;;;;;5034788;28;20025;-72
2023/03/19 06:23:55;;;;;;;14.75;7.47;;;;;;;;;;5034262;28;20018;-72
2023/03/19 06:26:21;;;;;;;15.18;7.65;;;;;;;;;;5034184;28;20030;-72
2023/03/19 06:28:46;;;;;;;13.57;7.10;;;;;;;;;;5034185;28;20132;-72
2023/03/19 06:31:11;;;;;;;15.73;6.70;;;;;;;;;;5033856;28;20091;-72
2023/03/19 06:33:39;;;;;;;11.50;6.60;;;;;;;;;;5034006;28;20309;-72
2023/03/19 06:36:05;;;;;;;17.83;7.30;;;;;;;;;;5033861;28;20258;-78
2023/03/19 06:38:30;;;;;;;15.23;6.55;;;;;;;;;;5033638;28;20018;-72
2023/03/19 06:40:56;;;;;;;16.05;7.20;;;;;;;;;;5033683;28;20037;-72
2023/03/19 06:43:21;;;;;;;12.05;7.13;;;;;;;;;;5033947;28;20036;-72
2023/03/19 06:45:46;;;;;;;14.70;7.15;;;;;;;;;;5033511;28;20029;-72
2023/03/19 06:48:11;;;;;;;11.10;6.28;;;;;;;;;;5033538;28;20033;-72
2023/03/19 06:50:37;;;;;;;11.07;6.90;;;;;;;;;;5033473;28;20041;-72
2023/03/19 06:53:02;;;;;;;17.07;6.60;;;;;;;;;;5033380;28;20028;-72
2023/03/19 06:55:29;;;;;;;12.90;7.38;;;;;;;;;;5033431;28;20266;-72
2023/03/19 06:57:54;;;;;;;15.63;7.07;;;;;;;;;;5033208;28;20052;-72
2023/03/19 07:00:20;;;;;;;14.15;6.88;;;;;;;;;;5033644;28;20496;-72
2023/03/19 07:02:45;;;;;;;13.40;6.30;;;;;;;;;;5033322;28;20373;-72
2023/03/19 07:05:10;;;;;;;15.05;6.57;;;;;;;;;;5033219;28;20068;-72
2023/03/19 07:07:36;;;;;;;14.30;6.93;;;;;;;;;;5033264;28;20022;-71
2023/03/19 07:10:01;;;;;;;12.63;6.57;;;;;;;;;;5031968;28;20028;-71
2023/03/19 07:12:26;;;;;;;13.20;6.47;;;;;;;;;;5033379;28;20033;-72
2023/03/19 07:14:54;;;;;;;11.88;6.95;;;;;;;;;;5033287;28;20033;-71
2023/03/19 07:17:20;;;;;;;11.57;6.28;;;;;;;;;;5031170;28;20083;-72
2023/03/19 07:19:45;;;;;;;11.65;6.32;;;;;;;;;;5033085;28;20025;-71
2023/03/19 07:22:10;;;;;;;14.27;7.07;;;;;;;;;;5033009;28;20029;-71
2023/03/19 07:24:36;;;;;;;15.97;6.67;;;;;;;;;;5032982;28;20251;-72
2023/03/19 07:27:01;;;;;;;12.47;6.57;;;;;;;;;;5032883;28;20273;-72
2023/03/19 07:29:27;;;;;;;12.15;6.25;;;;;;;;;;5033007;28;20263;-71
2023/03/19 07:31:52;;;;;;;13.07;6.38;;;;;;;;;;5032997;28;20388;-71
2023/03/19 07:34:17;;;;;;;11.57;6.57;;;;;;;;;;5032922;28;20025;-72
2023/03/19 07:36:42;;;;;;;11.57;6.32;;;;;;;;;;5032759;28;20250;-71
2023/03/19 07:39:08;;;;;;;14.00;6.90;;;;;;;;;;5032848;28;20083;-72
2023/03/19 07:41:34;;;;;;;11.63;6.47;;;;;;;;;;5033580;28;20095;-71
2023/03/19 07:43:59;;;;;;;13.25;7.22;;;;;;;;;;5031603;28;20021;-71
2023/03/19 07:46:25;;;;;;;16.58;7.60;;;;;;;;;;5032943;28;20147;-70
2023/03/19 07:48:50;;;;;;;17.08;7.95;;;;;;;;;;5033017;28;20021;-71
2023/03/19 07:51:15;;;;;;;16.33;7.75;;;;;;;;;;5032803;28;20028;-72
2023/03/19 07:53:40;;;;;;;13.87;7.17;;;;;;;;;;5032592;28;20029;-71
2023/03/19 07:56:06;;;;;;;14.30;7.55;;;;;;;;;;5032725;28;20281;-71
2023/03/19 07:58:31;;;;;;;13.70;6.93;;;;;;;;;;5032794;28;20551;-71
2023/03/19 08:00:57;;;;;;;14.87;6.57;;;;;;;;;;5032778;28;20029;-71
2023/03/19 08:03:22;;;;;;;16.73;7.13;;;;;;;;;;5032596;28;20255;-71
2023/03/19 08:05:48;;;;;;;15.43;6.73;;;;;;;;;;5032576;28;20029;-71
2023/03/19 08:08:14;;;;;;;11.23;6.57;;;;;;;;;;5032951;28;20262;-73
2023/03/19 08:10:39;;;;;;;14.07;6.40;;;;;;;;;;5032503;28;20075;-71
2023/03/19 08:13:05;;;;;;;14.27;6.90;;;;;;;;;;5032350;28;20030;-71
2023/03/19 08:15:31;;;;;;;12.98;6.82;;;;;;;;;;5032512;28;20029;-71
2023/03/19 08:17:58;;;;;;;15.27;6.72;;;;;;;;;;5032680;28;20064;-71
2023/03/19 08:20:23;;;;;;;13.23;6.25;;;;;;;;;;5032421;28;20084;-72
2023/03/19 08:22:49;;;;;;;12.77;7.25;;;;;;;;;;5032497;28;20025;-72
2023/03/19 08:25:14;;;;;;;12.40;6.60;;;;;;;;;;5032486;28;20068;-71
2023/03/19 08:27:40;;;;;;;12.35;6.10;;;;;;;;;;5034152;28;20029;-72
2023/03/19 08:30:07;;;;;;;13.45;6.57;;;;;;;;;;5036160;28;20025;-71
2023/03/19 08:32:33;;;;;;;13.60;6.53;;;;;;;;;;5036024;28;20541;-72
2023/03/19 08:34:59;;;;;;;12.50;6.70;;;;;;;;;;5034713;28;20124;-72
2023/03/19 08:37:24;;;;;;;11.00;6.32;;;;;;;;;;5035817;28;20025;-77
2023/03/19 08:39:51;;;;;;;14.73;6.80;;;;;;;;;;5035873;28;20032;-72
2023/03/19 08:42:16;;;;;;;12.98;6.05;;;;;;;;;;5035912;28;20025;-72
2023/03/19 08:44:42;;;;;;;16.30;6.32;;;;;;;;;;5035968;28;20108;-72
2023/03/19 08:47:07;;;;;;;12.45;6.88;;;;;;;;;;5035707;28;20513;-72
2023/03/19 08:49:32;;;;;;;13.90;6.63;;;;;;;;;;5035833;28;20083;-72
2023/03/19 08:51:57;;;;;;;11.40;6.85;;;;;;;;;;5035745;28;20492;-72
2023/03/19 08:54:23;;;;;;;12.17;5.83;;;;;;;;;;5035776;28;20025;-72
2023/03/19 08:56:48;;;;;;;14.55;7.00;;;;;;;;;;5035569;28;20262;-73
2023/03/19 08:59:13;;;;;;;15.88;6.60;;;;;;;;;;5035022;28;20052;-73
2023/03/19 09:01:38;;;;;;;13.17;6.40;;;;;;;;;;5033668;28;20021;-72
2023/03/19 09:04:04;;;;;;;12.07;6.50;;;;;;;;;;5034326;28;20599;-73
2023/03/19 09:06:30;;;;;;;11.73;6.28;;;;;;;;;;5035364;28;20259;-72
2023/03/19 09:08:55;;;;;;;10.35;5.63;;;;;;;;;;5033251;28;20040;-72
2023/03/19 09:11:22;;;;;;;13.47;6.90;;;;;;;;;;5034984;28;20021;-72
2023/03/19 09:13:47;;;;;;;9.65;6.10;;;;;;;;;;5035482;28;20765;-72
2023/03/19 09:16:12;;;;;;;12.33;7.00;;;;;;;;;;5035207;28;20129;-72
2023/03/19 09:18:37;;;;;;;12.00;7.00;;;;;;;;;;5035215;28;20341;-72
2023/03/19 09:21:03;;;;;;;15.00;6.88;;;;;;;;;;5035138;28;20266;-72
2023/03/19 09:23:28;;;;;;;12.82;6.45;;;;;;;;;;5035155;28;20021;-73
2023/03/19 09:25:53;;;;;;;16.70;7.30;;;;;;;;;;5035138;28;20025;-72
2023/03/19 09:28:18;;;;;;;12.90;6.70;;;;;;;;;;5035034;28;20028;-72
2023/03/19 09:30:46;;;;;;;11.52;6.28;;;;;;;;;;5035041;28;20765;-70
2023/03/19 09:33:11;;;;;;;13.82;6.82;;;;;;;;;;5035041;28;20026;-70
2023/03/19 09:35:38;;;;;;;12.05;6.68;;;;;;;;;;5034254;28;20027;-75
2023/03/19 09:38:04;;;;;;;12.60;6.70;;;;;;;;;;5033577;28;20076;-69
2023/03/19 09:40:37;;;;;;;12.68;6.32;;;;;;;;;;5034530;28;20029;-71
2023/03/19 09:43:40;;;;;;;12.40;6.65;;;;;;;;;;5034791;28;20072;-70
2023/03/19 09:46:19;;;;;;;12.45;6.70;;;;;;;;;;5033377;28;20057;-69
2023/03/19 09:48:53;;;;;;;13.63;6.63;;;;;;;;;;5035056;28;20450;-70
2023/03/19 09:51:29;;;;;;;14.18;6.85;;;;;;;;;;5034700;28;20037;-70
2023/03/19 09:54:01;;;;;;;13.73;7.07;;;;;;;;;;5034441;28;20524;-70
2023/03/19 09:56:26;;;;;;;16.63;7.05;;;;;;;;;;5034506;28;20113;-71
2023/03/19 09:58:52;;;;;;;12.88;6.70;;;;;;;;;;5034549;28;20021;-71
2023/03/19 10:01:25;;;;;;;11.85;6.63;;;;;;;;;;5033097;28;20485;-71
2023/03/19 10:04:08;;;;;;;11.52;6.68;;;;;;;;;;5034661;28;20032;-71
2023/03/19 10:06:35;;;;;;;13.15;7.00;;;;;;;;;;5034742;28;20022;-70
2023/03/19 10:09:31;;;;;;;13.30;7.22;;;;;;;;;;5034273;28;20030;-71
2023/03/19 10:12:19;;;;;;;13.48;6.50;;;;;;;;;;5034904;28;20028;-72
2023/03/19 10:14:54;;;;;;;14.60;7.18;;;;;;;;;;5034526;28;20025;-78
2023/03/19 10:17:26;;;;;;;12.13;6.80;;;;;;;;;;5034836;28;20026;-70
2023/03/19 10:20:01;;;;;;;13.20;6.85;;;;;;;;;;5034363;28;20392;-71
2023/03/19 10:22:53;;;;;;;12.85;6.85;;;;;;;;;;5034045;28;20084;-71
2023/03/19 10:25:22;;;;;;;13.63;7.18;;;;;;;;;;5033901;28;20044;-71
2023/03/19 10:27:55;;;;;;;14.77;6.38;;;;;;;;;;5033774;28;20068;-71
2023/03/19 10:30:20;;;;;;;11.98;6.63;;;;;;;;;;5034248;28;20029;-70
2023/03/19 10:32:53;;;;;;;11.95;6.32;;;;;;;;;;5034316;28;20044;-71
2023/03/19 10:35:23;;;;;;;14.15;6.45;;;;;;;;;;5033929;28;20021;-71
2023/03/19 10:37:49;;;;;;;12.20;6.07;;;;;;;;;;5033079;28;20030;-71
2023/03/19 10:40:43;;;;;;;12.63;6.57;;;;;;;;;;5033578;28;20021;-71
2023/03/19 10:43:23;;;;;;;13.82;7.10;;;;;;;;;;5033764;28;20071;-72
2023/03/19 10:45:49;;;;;;;14.60;6.53;;;;;;;;;;5033780;28;20115;-72
2023/03/19 10:48:15;;;;;;;10.80;6.13;;;;;;;;;;5033596;28;20059;-72
2023/03/19 10:50:49;;;;;;;14.88;7.00;;;;;;;;;;5032719;28;20028;-71
2023/03/19 10:53:14;;;;;;;;;;;;;;;;;;5033585;28;20548;-72
2023/03/19 10:55:51;;;;;;;15.40;6.78;;;;;;;;;;5033599;28;20483;-71
2023/03/19 10:58:21;;;;;;;11.32;6.53;;;;;;;;;;5033381;28;20109;-71
2023/03/19 11:00:48;;;;;;;12.48;6.60;;;;;;;;;;5033944;28;20032;-73
2023/03/19 11:03:46;;;;;;;14.45;6.78;;;;;;;;;;5032565;28;20083;-72
2023/03/19 11:06:22;;;;;;;13.82;6.47;;;;;;;;;;5033294;28;20075;-72
2023/03/19 11:09:07;;;;;;;13.90;6.65;;;;;;;;;;5033411;28;20472;-72
2023/03/19 11:11:56;;;;;;;10.60;6.40;;;;;;;;;;5033966;28;20441;-72
2023/03/19 11:14:35;;;;;;;13.15;7.05;;;;;;;;;;5033757;28;20022;-72
2023/03/19 11:17:15;;;;;;;11.75;6.82;;;;;;;;;;5031917;28;20049;-71
2023/03/19 11:19:47;;;;;;;16.10;7.40;;;;;;;;;;5033160;28;20017;-72
2023/03/19 11:22:20;;;;;;;14.50;7.32;;;;;;;;;;5033402;28;20435;-72
2023/03/19 11:25:13;;;;;;;11.63;6.93;;;;;;;;;;5033129;28;20025;-71
2023/03/19 11:27:39;;;;;;;13.20;7.13;;;;;;;;;;5033297;28;20071;-72
2023/03/19 11:30:15;;;;;;;14.98;7.22;;;;;;;;;;5033122;28;20408;-71
2023/03/19 11:33:01;;;;;;;14.63;7.20;;;;;;;;;;5033052;28;20036;-72
2023/03/19 11:35:53;;;;;;;13.40;6.47;;;;;;;;;;5033524;28;20384;-72
2023/03/19 11:38:27;;;;;;;14.18;6.95;;;;;;;;;;5033023;28;20084;-72
2023/03/19 11:41:16;;;;;;;14.18;6.80;;;;;;;;;;5033183;28;20476;-71
2023/03/19 11:43:53;;;;;;;12.55;7.13;;;;;;;;;;5033328;28;20568;-71
2023/03/19 11:46:40;;;;;;;14.75;6.93;;;;;;;;;;5032956;28;20025;-71
2023/03/19 11:49:15;;;;;;;12.02;6.70;;;;;;;;;;5032944;28;20069;-74
2023/03/19 11:51:50;;;;;;;12.80;6.70;;;;;;;;;;5032926;28;20519;-71
2023/03/19 11:54:31;;;;;;;11.52;6.50;;;;;;;;;;5033047;28;20116;-71
2023/03/19 11:57:01;;;;;;;11.73;6.55;;;;;;;;;;5033214;28;20083;-73
2023/03/19 11:59:58;;;;;;;12.43;6.65;;;;;;;;;;5033071;28;20032;-72
2023/03/19 12:03:06;;;;;;;13.23;7.07;;;;;;;;;;5034196;28;20381;-73
2023/03/19 12:05:50;;;;;;;13.00;6.35;;;;;;;;;;5031226;28;20029;-73
2023/03/19 12:08:43;;;;;;;14.35;6.70;;;;;;;;;;5036754;28;20030;-72
2023/03/19 12:11:33;;;;;;;15.10;6.72;;;;;;;;;;5034978;28;20039;-72
2023/03/19 12:14:11;;;;;;;12.05;6.90;;;;;;;;;;5036782;28;20036;-73
2023/03/19 12:17:03;;;;;;;13.68;7.05;;;;;;;;;;5036759;28;20115;-72
2023/03/19 12:19:40;;;;;;;13.07;6.45;;;;;;;;;;5036913;28;20104;-72
2023/03/19 12:22:31;;;;;;;10.70;6.45;;;;;;;;;;5036371;28;20029;-72
2023/03/19 12:25:23;;;;;;;12.85;6.43;;;;;;;;;;5036296;28;20025;-71
2023/03/19 12:28:12;;;;;;;15.38;6.93;;;;;;;;;;5034974;28;20075;-70
2023/03/19 12:30:44;;;;;;;12.77;6.72;;;;;;;;;;5036345;28;20041;-70
2023/03/19 12:33:31;;;;;;;15.65;8.00;;;;;;;;;;5036290;28;20448;-71
2023/03/19 12:35:58;;;;;;;15.57;6.38;;;;;;;;;;5036643;28;20047;-71
2023/03/19 12:38:30;;;;;;;13.90;7.15;;;;;;;;;;5035987;28;20060;-70
2023/03/19 12:41:22;;;;;;;13.05;6.63;;;;;;;;;;5036233;28;20469;-70
2023/03/19 12:43:53;;;;;;;13.45;6.82;;;;;;;;;;5036183;28;20516;-71
2023/03/19 12:46:27;;;;;;;16.55;7.78;;;;;;;;;;5035753;28;20029;-71
2023/03/19 12:49:06;;;;;;;12.88;7.43;;;;;;;;;;5036116;28;20496;-70
2023/03/19 12:51:39;;;;;;;14.00;7.38;;;;;;;;;;5035815;28;20025;-72
2023/03/19 12:54:11;;;;;;;15.55;7.93;;;;;;;;;;5035647;28;20053;-70
2023/03/19 12:56:58;;;;;;;14.55;7.47;;;;;;;;;;5035574;28;20072;-72
2023/03/19 12:59:44;;;;;;;16.08;7.68;;;;;;;;;;5035987;28;20380;-70
2023/03/19 13:02:27;;;;;;;11.57;6.50;;;;;;;;;;5034453;28;20405;-72
2023/03/19 13:05:04;;;;;;;14.15;7.07;;;;;;;;;;5035790;28;20369;-70
2023/03/19 13:07:44;;;;;;;15.15;7.63;;;;;;;;;;5035786;28;20025;-70
2023/03/19 13:10:17;;;;;;;12.38;6.82;;;;;;;;;;5035763;28;20025;-71
2023/03/19 13:12:45;;;;;;;12.48;6.57;;;;;;;;;;5035870;28;20025;-71
2023/03/19 13:15:22;;;;;;;14.43;7.10;;;;;;;;;;5034449;28;20025;-71
2023/03/19 13:18:18;;;;;;;16.33;7.38;;;;;;;;;;5034053;28;20116;-71
2023/03/19 13:21:06;;;;;;;12.82;7.20;;;;;;;;;;5036114;28;20104;-71
2023/03/19 13:23:35;;;;;;;13.65;7.22;;;;;;;;;;5035826;28;20025;-77
2023/03/19 13:26:03;;;;;;;12.57;7.15;;;;;;;;;;5035680;28;20047;-72
2023/03/19 13:28:30;;;;;;;13.73;7.32;;;;;;;;;;5035144;28;20049;-72
2023/03/19 13:31:02;;;;;;;16.77;7.07;;;;;;;;;;5034720;28;20030;-71
2023/03/19 13:33:27;;;;;;;11.38;6.95;;;;;;;;;;5034209;28;20022;-71
2023/03/19 13:35:54;;;;;;;14.15;7.25;;;;;;;;;;5033504;28;20036;-71
2023/03/19 13:38:23;;;;;;;13.80;6.78;;;;;;;;;;5033904;28;20060;-71
2023/03/19 13:40:51;;;;;;;12.77;6.80;;;;;;;;;;5032750;28;20134;-71
2023/03/19 13:43:41;;;;;;;13.85;6.97;;;;;;;;;;5032640;28;20108;-71
2023/03/19 13:46:16;;;;;;;14.88;6.95;;;;;;;;;;5032645;28;20108;-72
2023/03/19 13:48:44;;;;;;;12.70;6.80;;;;;;;;;;5032687;28;20026;-72
2023/03/19 13:51:26;;;;;;;16.85;7.13;;;;;;;;;;5032688;28;20029;-72
2023/03/19 13:54:11;;;;;;;13.07;7.00;;;;;;;;;;5032640;28;20084;-72
2023/03/19 13:56:59;;;;;;;14.80;8.80;;;;;;;;;;5034567;28;20032;-71
2023/03/19 13:59:26;;;;;;;15.45;7.40;;;;;;;;;;5035041;28;20451;-71
2023/03/19 14:01:52;;;;;;;13.13;7.38;;;;;;;;;;5034496;28;20555;-71
2023/03/19 14:04:36;;;;;;;13.68;7.25;;;;;;;;;;5034624;28;20090;-71
2023/03/19 14:07:07;;;;;;;12.13;7.22;;;;;;;;;;5034378;28;20393;-72
2023/03/19 14:09:39;;;;;;;14.48;7.43;;;;;;;;;;5034357;28;20021;-72
2023/03/19 14:12:35;;;;;;;17.17;7.50;;;;;;;;;;5034418;28;20029;-72
2023/03/19 14:15:09;;;;;;;14.38;7.28;;;;;;;;;;5033466;28;20041;-72
2023/03/19 14:17:53;;;;;;;12.43;7.20;;;;;;;;;;5034219;28;20030;-72
2023/03/19 14:20:18;;;;;;;16.48;7.55;;;;;;;;;;5034154;28;20022;-72
2023/03/19 14:22:55;;;;;;;14.77;7.87;;;;;;;;;;5034294;28;20539;-71
2023/03/19 14:25:26;;;;;;;15.50;7.57;;;;;;;;;;5034197;28;20025;-71
2023/03/19 14:27:58;;;;;;;14.65;8.07;;;;;;;;;;5034102;28;20100;-71
2023/03/19 14:30:24;;;;;;;14.55;7.60;;;;;;;;;;5033988;28;20037;-71
2023/03/19 14:32:50;;;;;;;12.77;8.13;;;;;;;;;;5033145;28;20116;-73
2023/03/19 14:35:19;;;;;;;12.38;7.05;;;;;;;;;;5033730;28;20025;-71
2023/03/19 14:37:53;;;;;;;16.65;7.47;;;;;;;;;;5033985;28;20026;-71
2023/03/19 14:40:22;;;;;;;16.05;7.25;;;;;;;;;;5033741;28;20022;-72
2023/03/19 14:43:26;;;;;;;14.40;7.35;;;;;;;;;;5033694;28;20484;-71
2023/03/19 14:46:02;;;;;;;15.43;7.63;;;;;;;;;;5033569;28;20064;-70